Terminal Aerodrome Forecast
Issued by NWS

Home | Current Version | Previous Version | Text Only | Print | Product List | Glossary Off
Versions: 1 2 3 4 5 6 7 8 9 10 11 12 13 14 15 16 17 18 19 20 21 22 23 24 25 26 27 28 29 30 31 32 33 34

000
FTUS43 KLOT 281559 AAB
TAFMDW
TAF AMD
KMDW 281559Z 2816/2912 19007KT P6SM FEW050 BKN250
     FM282000 16008KT P6SM SCT045 BKN100
     FM290000 14009KT 6SM -SHRA SCT030 OVC040
     FM290300 13010KT 3SM SHRA BR SCT008 OVC018 PROB30 2903/2907 2SM
      TSRA SCT008 OVC015CB
     FM290900 08009KT 5SM -SHRA BR SCT005 OVC008=

USA.gov is the U.S. government's official web portal to all federal, state and local government web resources and services.